メインページ
METAR-TAF:

METAR-TAF

空港 :

ベナジル・ブット国際空港

イスラマバード, パキスタン

緯度: 33-37N, 経度: 073-06E, 海抜: 507m

現時点の気象観測

当レポートは27分前の19:30(UTC)に作成
北東の風 4kt
気温 24°C
湿度 74%
気圧 1008 hPa
視程10km以上
1,500メートル以下は雲なし、積乱雲なし

METAR: OPRN 181930Z 05004KT CAVOK 24/19 Q1008 NOSIG RMK A2978

時間: 00:57 (19:57 UTC)

予報

当レポートは4時間27分前の15:30(UTC)に作成
予報は18日の 18時(UTC)から 19日の 24時(UTC)まで有効
南東の風 10kt
視程10km以上
1,500メートル以下は雲なし、積乱雲なし
18日の 20時(UTC)から 18日の 24時(UTC)まで一時的に
視程: 8000m
19日の 00時(UTC)から 19日の 04時(UTC)まで一時的に
視程: 6000m
19日の 15時(UTC)から 19日の 24時(UTC)まで一時的に
視程: 7000m

TAF: OPRN 181530Z 1818/1924 13010KT CAVOK TEMPO 1820/1824 8000 NSC TEMPO 1900/1904 6000 NSC TEMPO 1915/1924 7000 NSC

4,000以上の空港の気象観測と天気予報(METAR報とTAF報)

利用可能な観測所は地図上に黄色い丸と赤い丸で示す。

丸の上にカーソルを重ねると観測所名を参照できる。

次にクリックすると気象観測と天気予報を参照できる。

マップの切り替え:黒色「×」印の緑ボタンをクリックして拡大、「-」印の緑ボタンをクリックして縮小、緑色の三角印をクリックして隣りの地図に切り替え


METAR-TAF: